X  Fermer Données météorologiques d'aviation de Metar     EBBR Brussels Airport
Température
9°C Température
3°C Point de rosée
66% Humidité



Vitesse
16 KM/H
10 MPH
4 M/S
9 KTS



80°
Est
Conditions actuelles

Partiellement nuageux Partiellement nuageux
Pression 1035.92 (hPa) - 30.59 (inHg)
Visibilité 6.2 (mile) - 10 (km)
Aéroport
Code de l'aéroport EBBR

Emplacement: Brussels Airport
Distance: 14 (km)

Metar:
EBBR 281150Z 08009KT 9999 FEW025 09/03 Q1036 NOSIG

Temps: 02-28-2021 12:50 CET